Time;durP1;ratioP1;P1;durP2;ratioP2;P2;SDS_P1;SDS_P2;PMS_P1;PMS_P2;Temp;Humidity;BMP_temperature;BMP_pressure;BME280_temperature;BME280_humidity;BME280_pressure;Samples;Min_cycle;Max_cycle;Signal;HPM_P1;HPM_P2
2022/05/05 00:01:14;;;;;;;;;;;8.50;99.90;;;;;;5057117;28;19959;-61
2022/05/05 00:03:40;;;;;;;;;;;8.50;99.90;;;;;;5074752;28;19924;-61
2022/05/05 00:06:05;;;;;;;;;;;8.50;99.90;;;;;;5074663;28;19943;-61
2022/05/05 00:08:31;;;;;;;;;;;8.50;99.90;;;;;;5074597;28;19920;-61
2022/05/05 00:16:27;;;;;;;;;;;8.50;99.90;;;;;;5074702;28;19920;-63
2022/05/05 00:18:52;;;;;;;;;;;8.50;99.90;;;;;;5074454;28;19950;-62
2022/05/05 00:21:18;;;;;;;;;;;8.50;99.90;;;;;;5056539;28;19921;-63
2022/05/05 00:23:43;;;;;;;;;;;8.50;99.90;;;;;;5056485;28;19921;-60
2022/05/05 00:26:09;;;;;;;;;;;8.50;99.90;;;;;;5056819;28;20294;-60
2022/05/05 00:28:34;;;;;;;;;;;8.60;99.90;;;;;;5073875;28;20025;-60
2022/05/05 00:31:00;;;;;;;;;;;8.50;99.90;;;;;;5074456;28;19928;-60
2022/05/05 00:33:25;;;;;;;;;;;8.50;99.90;;;;;;5074209;28;19921;-60
2022/05/05 00:35:51;;;;;;;;;;;8.50;99.90;;;;;;5074082;28;19920;-60
2022/05/05 00:38:17;;;;;;;;;;;8.50;99.90;;;;;;5074318;28;19920;-61
2022/05/05 00:40:43;;;;;;;;;;;8.60;99.90;;;;;;5074066;28;19928;-60
2022/05/05 00:43:09;;;;;;;;;;;8.60;99.90;;;;;;5074353;28;19932;-60
2022/05/05 00:45:35;;;;;;;;;;;8.50;99.90;;;;;;5073876;28;19926;-61
2022/05/05 00:48:04;;;;;;;;;;;8.50;99.90;;;;;;5073933;28;19931;-60
2022/05/05 00:50:31;;;;;;;;;;;8.50;99.90;;;;;;5073825;28;19928;-61
2022/05/05 00:52:57;;;;;;;;;;;8.60;99.90;;;;;;5074166;28;19990;-60
2022/05/05 00:55:22;;;;;;;;;;;8.60;99.90;;;;;;5074405;28;19928;-61
2022/05/05 00:57:48;;;;;;;;;;;8.50;99.90;;;;;;5073731;28;20006;-62
2022/05/05 01:00:14;;;;;;;;;;;8.60;99.90;;;;;;5073713;28;19997;-61
2022/05/05 01:02:39;;;;;;;;;;;8.60;99.90;;;;;;5073803;28;19921;-61
2022/05/05 01:05:05;;;;;;;;;;;8.60;99.90;;;;;;5073402;28;19982;-61
2022/05/05 01:07:31;;;;;;;;;;;8.60;99.90;;;;;;5073747;28;20428;-61
2022/05/05 01:09:56;;;;;;;;;;;8.60;99.90;;;;;;5073473;28;19943;-61
2022/05/05 01:12:23;;;;;;;;;;;8.60;99.90;;;;;;5073645;28;19924;-62
2022/05/05 01:14:49;;;;;;;;;;;8.70;99.90;;;;;;5073507;28;19931;-61
2022/05/05 01:17:15;;;;;;;;;;;8.70;99.90;;;;;;5073271;28;19920;-62
2022/05/05 01:19:40;;;;;;;;;;;8.60;99.90;;;;;;5073087;28;20394;-62
2022/05/05 01:22:06;;;;;;;;;;;8.60;99.90;;;;;;5073294;28;19920;-62
2022/05/05 01:30:00;;;;;;;;;;;8.70;99.90;;;;;;5072990;28;19928;-61
2022/05/05 01:32:32;;;;;;;;;;;8.60;99.90;;;;;;5073476;28;20322;-62
2022/05/05 01:34:58;;;;;;;;;;;8.60;99.90;;;;;;5073242;28;19927;-61
2022/05/05 01:37:24;;;;;;;;;;;8.60;99.90;;;;;;5073099;28;20295;-61
2022/05/05 01:39:49;;;;;;;;;;;8.60;99.90;;;;;;5073048;28;19978;-61
2022/05/05 01:42:15;;;;;;;;;;;8.60;99.90;;;;;;5072844;28;19931;-61
2022/05/05 01:44:41;;;;;;;;;;;8.60;99.90;;;;;;5072864;28;19928;-61
2022/05/05 01:47:07;;;;;;;;;;;8.60;99.90;;;;;;5073022;28;19921;-61
2022/05/05 01:49:32;;;;;;;;;;;8.70;99.90;;;;;;5072657;28;19978;-63
2022/05/05 01:51:58;;;;;;;;;;;8.70;99.90;;;;;;5072672;28;19920;-62
2022/05/05 01:54:24;;;;;;;;;;;8.70;99.90;;;;;;5072702;28;19920;-62
2022/05/05 01:56:49;;;;;;;;;;;8.70;99.90;;;;;;5071840;28;19925;-62
2022/05/05 01:59:15;;;;;;;;;;;8.70;99.90;;;;;;5072539;28;20274;-62
2022/05/05 02:01:40;;;;;;;;;;;8.60;99.90;;;;;;5072831;28;19927;-62
2022/05/05 02:04:06;;;;;;;;;;;8.60;99.90;;;;;;5072557;28;19926;-62
2022/05/05 02:06:31;;;;;;;;;;;8.60;99.90;;;;;;5072584;28;19974;-62
2022/05/05 02:08:58;;;;;;;;;;;8.60;99.90;;;;;;5072565;28;20294;-62
2022/05/05 02:11:25;;;;;;;;;;;8.60;99.90;;;;;;5072571;28;19966;-62
2022/05/05 02:13:50;;;;;;;;;;;8.60;99.90;;;;;;5072380;28;19970;-62
2022/05/05 02:16:16;;;;;;;;;;;8.60;99.90;;;;;;5054370;28;19932;-62
2022/05/05 02:18:41;;;;;;;;;;;8.60;99.90;;;;;;5072616;28;19932;-62
2022/05/05 02:21:07;;;;;;;;;;;8.60;99.90;;;;;;5072570;28;19975;-62
2022/05/05 02:23:32;;;;;;;;;;;8.50;99.90;;;;;;5072378;28;20421;-62
2022/05/05 02:25:58;;;;;;;;;;;8.50;99.90;;;;;;5072138;28;20011;-62
2022/05/05 02:28:23;;;;;;;;;;;8.40;99.90;;;;;;5054002;28;19920;-61
2022/05/05 02:30:49;;;;;;;;;;;8.50;99.90;;;;;;5072359;28;19924;-61
2022/05/05 02:33:14;;;;;;;;;;;8.40;99.90;;;;;;5072062;28;19999;-62
2022/05/05 02:35:40;;;;;;;;;;;8.30;99.90;;;;;;5072247;28;19924;-61
2022/05/05 02:40:49;;;;;;;;;;;8.30;99.90;;;;;;5071935;28;19921;-61
2022/05/05 02:43:15;;;;;;;;;;;8.30;99.90;;;;;;5072369;28;20290;-61
2022/05/05 02:45:40;;;;;;;;;;;8.30;99.90;;;;;;5072189;28;20298;-61
2022/05/05 02:48:06;;;;;;;;;;;8.30;99.90;;;;;;5072294;28;19943;-61
2022/05/05 02:50:32;;;;;;;;;;;8.30;99.90;;;;;;5072339;28;20674;-61
2022/05/05 02:52:57;;;;;;;;;;;8.30;99.90;;;;;;5072242;28;19927;-61
2022/05/05 02:55:23;;;;;;;;;;;8.30;99.90;;;;;;5071902;28;19921;-62
2022/05/05 02:57:49;;;;;;;;;;;8.30;99.90;;;;;;5071748;28;20014;-61
2022/05/05 03:00:15;;;;;;;;;;;8.40;99.90;;;;;;5072105;28;19974;-62
2022/05/05 03:02:41;;;;;;;;;;;8.40;99.90;;;;;;5072007;28;19932;-62
2022/05/05 03:05:11;;;;;;;;;;;8.40;99.90;;;;;;5071928;28;19983;-61
2022/05/05 03:07:36;;;;;;;;;;;8.40;99.90;;;;;;5072030;28;19921;-62
2022/05/05 03:10:02;;;;;;;;;;;8.30;99.90;;;;;;5075649;28;19947;-61
2022/05/05 03:12:28;;;;;;;;;;;8.40;99.90;;;;;;5075678;28;19960;-61
2022/05/05 03:14:53;;;;;;;;;;;8.50;99.90;;;;;;5075899;28;20369;-62
2022/05/05 03:17:19;;;;;;;;;;;8.50;99.90;;;;;;5075739;28;20008;-61
2022/05/05 03:19:44;;;;;;;;;;;8.40;99.90;;;;;;5075448;28;20370;-61
2022/05/05 03:22:10;;;;;;;;;;;8.40;99.90;;;;;;5075682;28;19924;-61
2022/05/05 03:24:35;;;;;;;;;;;8.40;99.90;;;;;;5075436;28;19920;-61
2022/05/05 03:27:02;;;;;;;;;;;8.40;99.90;;;;;;5075456;28;19920;-62
2022/05/05 03:29:27;;;;;;;;;;;8.50;99.90;;;;;;5075122;28;19954;-61
2022/05/05 03:31:53;;;;;;;;;;;8.50;99.90;;;;;;5075801;28;19990;-61
2022/05/05 03:34:19;;;;;;;;;;;8.50;99.90;;;;;;5075235;28;19920;-61
2022/05/05 03:36:45;;;;;;;;;;;8.50;99.90;;;;;;5057478;28;19978;-62
2022/05/05 03:39:10;;;;;;;;;;;8.40;99.90;;;;;;5075648;28;19924;-61
2022/05/05 03:41:36;;;;;;;;;;;8.50;99.90;;;;;;5075176;28;19982;-61
2022/05/05 03:44:03;;;;;;;;;;;8.40;99.90;;;;;;5074907;28;19920;-62
2022/05/05 03:46:30;;;;;;;;;;;8.40;99.90;;;;;;5075192;28;20273;-62
2022/05/05 03:48:56;;;;;;;;;;;8.40;99.90;;;;;;5074890;28;20374;-62
2022/05/05 03:51:22;;;;;;;;;;;8.40;99.90;;;;;;5074999;28;20046;-61
2022/05/05 03:53:47;;;;;;;;;;;8.50;99.90;;;;;;5074816;28;20014;-61
2022/05/05 03:56:13;;;;;;;;;;;8.50;99.90;;;;;;5075128;28;19921;-62
2022/05/05 03:58:38;;;;;;;;;;;8.40;99.90;;;;;;5075080;28;19926;-61
2022/05/05 04:01:04;;;;;;;;;;;8.40;99.90;;;;;;5074886;28;20003;-61
2022/05/05 04:03:33;;;;;;;;;;;8.40;99.90;;;;;;5074861;28;19931;-61
2022/05/05 04:05:58;;;;;;;;;;;8.40;99.90;;;;;;5074785;28;20017;-61
2022/05/05 04:08:25;;;;;;;;;;;8.50;99.90;;;;;;5074649;28;19974;-61
2022/05/05 04:10:50;;;;;;;;;;;8.30;99.90;;;;;;5074762;28;19924;-61
2022/05/05 04:13:16;;;;;;;;;;;8.30;99.90;;;;;;5056274;28;20419;-61
2022/05/05 04:15:41;;;;;;;;;;;8.30;99.90;;;;;;5074608;28;19920;-62
2022/05/05 04:18:07;;;;;;;;;;;8.20;99.90;;;;;;5074685;28;19920;-61
2022/05/05 04:20:33;;;;;;;;;;;8.30;99.90;;;;;;5073965;28;19920;-62
2022/05/05 04:22:58;;;;;;;;;;;8.20;99.90;;;;;;5056494;28;19970;-61
2022/05/05 04:25:24;;;;;;;;;;;8.30;99.90;;;;;;5074315;28;19921;-61
2022/05/05 04:27:50;;;;;;;;;;;8.30;99.90;;;;;;5074760;28;19963;-61
2022/05/05 04:30:16;;;;;;;;;;;8.40;99.90;;;;;;5074135;28;20362;-61
2022/05/05 04:32:42;;;;;;;;;;;8.40;99.90;;;;;;5074270;28;19974;-61
2022/05/05 04:35:08;;;;;;;;;;;8.40;99.90;;;;;;5074233;28;19951;-61
2022/05/05 04:37:34;;;;;;;;;;;8.40;99.90;;;;;;5073947;28;20393;-61
2022/05/05 04:39:59;;;;;;;;;;;8.40;99.90;;;;;;5074219;28;19967;-62
2022/05/05 04:42:27;;;;;;;;;;;8.30;99.90;;;;;;5074060;28;19959;-62
2022/05/05 04:44:53;;;;;;;;;;;8.40;99.90;;;;;;5074152;28;19973;-62
2022/05/05 04:47:18;;;;;;;;;;;8.40;99.90;;;;;;5074052;28;20386;-61
2022/05/05 04:49:44;;;;;;;;;;;8.40;99.90;;;;;;5073989;28;19948;-61
2022/05/05 04:52:10;;;;;;;;;;;8.50;99.90;;;;;;5073856;28;19947;-61
2022/05/05 04:54:35;;;;;;;;;;;8.50;99.90;;;;;;5074094;28;20377;-61
2022/05/05 04:57:01;;;;;;;;;;;8.50;99.90;;;;;;5073832;28;20381;-62
2022/05/05 04:59:26;;;;;;;;;;;8.60;99.90;;;;;;5073781;28;20003;-62
2022/05/05 05:01:52;;;;;;;;;;;8.70;99.90;;;;;;5073593;28;19920;-62
2022/05/05 05:04:18;;;;;;;;;;;8.60;99.90;;;;;;5073695;28;19920;-62
2022/05/05 05:06:43;;;;;;;;;;;8.60;99.90;;;;;;5072289;28;19920;-61
2022/05/05 05:09:09;;;;;;;;;;;8.70;99.90;;;;;;5073373;28;19931;-61
2022/05/05 05:11:34;;;;;;;;;;;8.60;99.90;;;;;;5072108;28;20019;-62
2022/05/05 05:14:00;;;;;;;;;;;8.70;99.90;;;;;;5055530;28;20015;-62
2022/05/05 05:16:25;;;;;;;;;;;8.80;99.90;;;;;;5073378;28;19920;-61
2022/05/05 05:18:53;;;;;;;;;;;8.80;99.90;;;;;;5073297;28;19927;-62
2022/05/05 05:21:19;;;;;;;;;;;8.80;99.90;;;;;;5073221;28;19920;-62
2022/05/05 05:23:45;;;;;;;;;;;8.80;99.90;;;;;;5073528;28;20378;-62
2022/05/05 05:26:10;;;;;;;;;;;8.90;99.90;;;;;;5073355;28;19921;-62
2022/05/05 05:28:36;;;;;;;;;;;9.00;99.90;;;;;;5073073;28;19928;-62
2022/05/05 05:31:01;;;;;;;;;;;9.10;99.90;;;;;;5072381;28;19947;-62
2022/05/05 05:33:27;;;;;;;;;;;9.10;99.90;;;;;;5071222;28;19928;-62
2022/05/05 05:35:53;;;;;;;;;;;9.20;99.90;;;;;;5071788;28;19920;-62
2022/05/05 05:38:20;;;;;;;;;;;9.20;99.90;;;;;;5073251;28;19920;-62
2022/05/05 05:40:45;;;;;;;;;;;9.30;99.90;;;;;;5073258;28;19921;-62
2022/05/05 05:43:11;;;;;;;;;;;9.30;99.90;;;;;;5072925;28;19920;-62
2022/05/05 05:45:36;;;;;;;;;;;9.40;99.90;;;;;;5072846;28;20293;-62
2022/05/05 05:48:04;;;;;;;;;;;9.40;99.90;;;;;;5072795;28;19920;-62
2022/05/05 05:50:30;;;;;;;;;;;9.40;99.90;;;;;;5072573;28;20380;-62
2022/05/05 05:52:56;;;;;;;;;;;9.40;99.90;;;;;;5072810;28;19927;-62
2022/05/05 05:55:22;;;;;;;;;;;9.40;99.90;;;;;;5072792;28;19920;-62
2022/05/05 05:57:47;;;;;;;;;;;9.50;99.90;;;;;;5072941;28;19998;-62
2022/05/05 06:00:13;;;;;;;;;;;9.50;99.90;;;;;;5072840;28;20038;-62
2022/05/05 06:05:23;;;;;;;;;;;9.60;99.90;;;;;;5072894;28;19920;-62
2022/05/05 06:07:48;;;;;;;;;;;9.70;99.90;;;;;;5072750;28;20294;-62
2022/05/05 06:10:16;;;;;;;;;;;9.80;99.90;;;;;;5072344;28;19924;-62
2022/05/05 06:12:42;;;;;;;;;;;9.80;99.90;;;;;;5072444;28;19927;-62
2022/05/05 06:15:08;;;;;;;;;;;9.80;99.90;;;;;;5072293;28;20367;-62
2022/05/05 06:17:34;;;;;;;;;;;9.80;99.90;;;;;;5072376;28;19921;-62
2022/05/05 06:20:00;;;;;;;;;;;10.00;99.90;;;;;;5072315;28;19927;-62
2022/05/05 06:22:25;;;;;;;;;;;10.00;99.90;;;;;;5054402;28;20282;-63
2022/05/05 06:24:51;;;;;;;;;;;10.10;99.90;;;;;;5072615;28;19921;-63
2022/05/05 06:27:16;;;;;;;;;;;10.20;99.90;;;;;;5072566;28;20415;-63
2022/05/05 06:29:42;;;;;;;;;;;10.20;99.90;;;;;;5071914;28;19925;-63
2022/05/05 06:32:08;;;;;;;;;;;10.20;99.90;;;;;;5072046;28;19920;-63
2022/05/05 06:34:33;;;;;;;;;;;10.30;99.90;;;;;;5054278;28;19921;-64
2022/05/05 06:36:59;;;;;;;;;;;10.40;99.90;;;;;;5072735;28;19964;-62
2022/05/05 06:39:24;;;;;;;;;;;10.50;99.90;;;;;;5072440;28;20278;-63
2022/05/05 06:41:50;;;;;;;;;;;10.60;99.90;;;;;;5072132;28;19924;-63
2022/05/05 06:44:15;;;;;;;;;;;10.60;99.90;;;;;;5071836;28;19921;-62
2022/05/05 06:46:41;;;;;;;;;;;10.70;99.90;;;;;;5072022;28;19924;-63
2022/05/05 06:49:06;;;;;;;;;;;10.80;99.90;;;;;;5071884;28;20290;-63
2022/05/05 06:51:33;;;;;;;;;;;10.90;99.90;;;;;;5072197;28;19927;-63
2022/05/05 06:53:58;;;;;;;;;;;10.80;99.90;;;;;;5072122;28;19928;-63
2022/05/05 06:56:25;;;;;;;;;;;10.80;99.90;;;;;;5072041;28;19921;-63
2022/05/05 06:58:50;;;;;;;;;;;10.70;99.90;;;;;;5071911;28;19967;-63
2022/05/05 07:06:44;;;;;;;;;;;10.80;99.90;;;;;;5072214;28;20238;-63
2022/05/05 07:11:54;;;;;;;;;;;10.90;99.90;;;;;;5071570;28;19921;-62
2022/05/05 07:14:19;;;;;;;;;;;11.10;99.90;;;;;;5070578;28;19931;-63
2022/05/05 07:16:45;;;;;;;;;;;11.00;99.90;;;;;;5072091;28;19920;-63
2022/05/05 07:19:10;;;;;;;;;;;11.10;99.90;;;;;;5071988;28;19998;-62
2022/05/05 07:21:37;;;;;;;;;;;11.10;99.90;;;;;;5071671;28;19920;-63
2022/05/05 07:24:03;;;;;;;;;;;11.20;99.90;;;;;;5072096;28;20251;-62
2022/05/05 07:26:29;;;;;;;;;;;11.20;99.90;;;;;;5072078;28;19925;-62
2022/05/05 07:28:54;;;;;;;;;;;11.30;99.90;;;;;;5071326;28;20016;-62
2022/05/05 07:31:20;;;;;;;;;;;11.40;99.90;;;;;;5071452;28;19980;-62
2022/05/05 07:33:45;;;;;;;;;;;11.50;99.90;;;;;;5071666;28;19920;-62
2022/05/05 07:36:11;;;;;;;;;;;11.50;99.90;;;;;;5071541;28;19951;-62
2022/05/05 07:38:37;;;;;;;;;;;11.60;99.90;;;;;;5071597;28;20335;-63
2022/05/05 07:41:03;;;;;;;;;;;11.80;99.90;;;;;;5071579;28;19999;-62
2022/05/05 07:43:29;;;;;;;;;;;11.90;99.90;;;;;;5071591;28;20001;-63
2022/05/05 07:45:54;;;;;;;;;;;11.90;99.90;;;;;;5071838;28;20374;-63
2022/05/05 07:48:20;;;;;;;;;;;12.00;99.90;;;;;;5071576;28;20007;-62
2022/05/05 07:50:47;;;;;;;;;;;12.20;99.90;;;;;;5071995;28;19930;-62
2022/05/05 07:53:13;;;;;;;;;;;12.30;99.90;;;;;;5071450;28;20012;-63
2022/05/05 07:55:38;;;;;;;;;;;12.20;99.90;;;;;;5072901;28;19960;-63
2022/05/05 07:58:04;;;;;;;;;;;12.40;99.90;;;;;;5075639;28;19966;-63
2022/05/05 08:00:30;;;;;;;;;;;12.50;99.90;;;;;;5075060;28;20355;-64
2022/05/05 08:02:56;;;;;;;;;;;12.70;99.90;;;;;;5075456;28;19975;-63
2022/05/05 08:05:21;;;;;;;;;;;12.80;99.90;;;;;;5074966;28;19982;-63
2022/05/05 08:07:49;;;;;;;;;;;13.00;99.90;;;;;;5075166;28;19920;-63
2022/05/05 08:10:20;;;;;;;;;;;13.00;99.90;;;;;;5040120;28;20019;-63
2022/05/05 08:12:46;;;;;;;;;;;13.10;99.90;;;;;;5040085;28;20370;-64
2022/05/05 08:15:12;;;;;;;;;;;13.10;99.90;;;;;;5074389;28;19927;-63
2022/05/05 08:17:38;;;;;;;;;;;13.20;99.90;;;;;;5074469;28;19920;-63
2022/05/05 08:20:04;;;;;;;;;;;13.20;99.90;;;;;;5074566;28;19920;-63
2022/05/05 08:22:30;;;;;;;;;;;13.30;99.90;;;;;;5074591;28;19963;-64
2022/05/05 08:30:24;;;;;;;;;;;13.60;99.90;;;;;;5074185;28;19928;-62
2022/05/05 08:32:50;;;;;;;;;;;13.80;99.90;;;;;;5074609;28;19958;-62
2022/05/05 08:35:15;;;;;;;;;;;13.80;99.90;;;;;;5074303;28;20366;-63
2022/05/05 08:37:41;;;;;;;;;;;14.00;99.90;;;;;;5074365;28;19927;-62
2022/05/05 08:40:07;;;;;;;;;;;13.90;99.90;;;;;;5074495;28;19924;-62
2022/05/05 08:42:33;;;;;;;;;;;14.00;99.90;;;;;;5074442;28;19920;-63
2022/05/05 08:44:59;;;;;;;;;;;14.00;99.90;;;;;;5074709;28;20022;-64
2022/05/05 08:47:26;;;;;;;;;;;14.20;99.90;;;;;;5074093;28;19974;-63
2022/05/05 08:49:57;;;;;;;;;;;14.30;99.90;;;;;;5073667;28;19976;-62
2022/05/05 08:52:24;;;;;;;;;;;14.40;99.90;;;;;;5073987;28;19921;-62
2022/05/05 08:54:50;;;;;;;;;;;14.60;99.90;;;;;;5073934;28;19927;-63
2022/05/05 08:57:15;;;;;;;;;;;14.70;99.90;;;;;;5073757;28;19927;-63
2022/05/05 08:59:41;;;;;;;;;;;14.80;99.90;;;;;;5073584;28;19920;-63
2022/05/05 09:02:07;;;;;;;;;;;15.10;99.90;;;;;;5055604;28;19920;-62
2022/05/05 09:04:33;;;;;;;;;;;15.30;99.90;;;;;;5073579;28;19924;-63
2022/05/05 09:06:58;;;;;;;;;;;15.20;99.90;;;;;;5073272;28;19927;-64
2022/05/05 09:09:30;;;;;;;;;;;15.30;99.90;;;;;;5073573;28;19924;-63
2022/05/05 09:12:05;;;;;;;;;;;15.60;99.90;;;;;;5073589;28;19921;-61
2022/05/05 09:14:37;;;;;;;;;;;15.80;99.90;;;;;;5073690;28;19920;-61
2022/05/05 09:17:03;;;;;;;;;;;16.10;99.90;;;;;;5073644;28;19921;-60
2022/05/05 09:19:29;;;;;;;;;;;16.60;99.90;;;;;;5073380;28;20391;-60
2022/05/05 09:21:57;;;;;;;;;;;16.60;99.90;;;;;;5073566;28;19921;-61
2022/05/05 09:24:35;;;;;;;;;;;16.90;99.90;;;;;;5073369;28;19927;-61
2022/05/05 09:27:16;;;;;;;;;;;17.20;99.90;;;;;;5073407;28;19921;-61
2022/05/05 09:29:41;;;;;;;;;;;17.20;99.90;;;;;;5072853;28;19977;-61
2022/05/05 09:32:11;;;;;;;;;;;17.40;99.90;;;;;;5073682;28;19921;-61
2022/05/05 09:34:37;;;;;;;;;;;17.50;99.90;;;;;;5073149;28;20298;-63
2022/05/05 09:37:18;;;;;;;;;;;17.60;99.90;;;;;;5073159;28;19928;-63
2022/05/05 09:39:43;;;;;;;;;;;17.50;99.90;;;;;;5072976;28;19921;-62
2022/05/05 09:42:09;;;;;;;;;;;18.00;99.90;;;;;;5072935;28;19965;-62
2022/05/05 09:44:43;;;;;;;;;;;18.10;99.90;;;;;;5073572;28;19924;-62
2022/05/05 09:47:16;;;;;;;;;;;18.00;99.90;;;;;;5072891;28;20340;-62
2022/05/05 09:49:55;;;;;;;;;;;18.00;99.90;;;;;;5072857;28;20023;-63
2022/05/05 09:57:52;;;;;;;;;;;18.20;99.90;;;;;;5072442;28;20408;-62
2022/05/05 10:05:36;;;;;;;;;;;18.30;99.90;;;;;;5072837;28;19924;-62
2022/05/05 10:08:02;;;;;;;;;;;18.00;99.90;;;;;;5072698;28;19925;-61
2022/05/05 10:10:28;;;;;;;;;;;18.20;99.90;;;;;;5072297;28;19925;-61
2022/05/05 10:12:57;;;;;;;;;;;18.30;99.90;;;;;;5072578;28;19927;-62
2022/05/05 10:15:23;;;;;;;;;;;18.30;99.90;;;;;;5072680;28;19924;-61
2022/05/05 10:17:49;;;;;;;;;;;18.30;99.90;;;;;;5072104;28;20357;-61
2022/05/05 10:20:14;;;;;;;;;;;18.40;99.90;;;;;;5072554;28;20279;-62
2022/05/05 10:22:46;;;;;;;;;;;18.40;99.90;;;;;;5072539;28;20252;-62
2022/05/05 10:25:15;;;;;;;;;;;18.40;99.90;;;;;;5072568;28;19950;-61
2022/05/05 10:27:42;;;;;;;;;;;18.50;99.90;;;;;;5072676;28;19944;-61
2022/05/05 10:30:12;;;;;;;;;;;18.70;99.90;;;;;;5072038;28;19924;-62
2022/05/05 10:32:38;;;;;;;;;;;18.90;99.90;;;;;;5072639;28;20011;-61
2022/05/05 10:35:07;;;;;;;;;;;18.90;99.90;;;;;;5072212;28;20482;-61
2022/05/05 10:37:33;;;;;;;;;;;19.10;99.90;;;;;;5072227;28;19981;-63
2022/05/05 10:39:59;;;;;;;;;;;18.90;99.90;;;;;;5072012;28;19928;-62
2022/05/05 10:42:34;;;;;;;;;;;19.20;99.90;;;;;;5072126;28;19920;-61
2022/05/05 10:45:04;;;;;;;;;;;19.40;99.90;;;;;;5072320;28;19920;-62
2022/05/05 10:47:48;;;;;;;;;;;19.40;99.90;;;;;;5072204;28;19927;-62
2022/05/05 10:50:33;;;;;;;;;;;19.40;99.90;;;;;;5072528;28;19924;-63
2022/05/05 10:52:59;;;;;;;;;;;19.60;99.90;;;;;;5054202;28;19974;-62
2022/05/05 10:55:27;;;;;;;;;;;19.60;99.90;;;;;;5072399;28;19959;-62
2022/05/05 10:57:53;;;;;;;;;;;19.50;99.90;;;;;;5072044;28;20340;-62
2022/05/05 11:00:19;;;;;;;;;;;19.40;99.90;;;;;;5053353;28;19953;-62
2022/05/05 11:02:56;;;;;;;;;;;19.60;99.90;;;;;;5072112;28;19920;-63
2022/05/05 11:05:22;;;;;;;;;;;19.90;99.90;;;;;;5072137;28;20014;-62
2022/05/05 11:07:51;;;;;;;;;;;20.00;99.90;;;;;;5071945;28;20003;-62
2022/05/05 11:10:35;;;;;;;;;;;19.90;99.90;;;;;;5071661;28;20291;-62
2022/05/05 11:13:01;;;;;;;;;;;20.00;99.90;;;;;;5072033;28;20133;-61
2022/05/05 11:21:48;;;;;;;;;;;20.20;99.90;;;;;;5009805;28;19936;-61
2022/05/05 11:24:24;;;;;;;;;;;20.00;99.80;;;;;;5009935;28;20008;-61
2022/05/05 11:26:50;;;;;;;;;;;20.00;99.90;;;;;;5010012;28;19926;-61
2022/05/05 11:29:16;;;;;;;;;;;20.10;99.90;;;;;;5010688;28;20393;-61
2022/05/05 11:31:41;;;;;;;;;;;20.10;99.90;;;;;;5013977;28;20334;-61
2022/05/05 11:34:07;;;;;;;;;;;20.10;99.90;;;;;;5013713;28;19932;-61
2022/05/05 11:36:33;;;;;;;;;;;20.10;99.90;;;;;;5013329;28;19943;-61
2022/05/05 11:38:59;;;;;;;;;;;20.20;99.90;;;;;;5013372;28;19922;-61
2022/05/05 11:41:25;;;;;;;;;;;20.20;99.90;;;;;;5013466;28;19944;-60
2022/05/05 11:46:38;;;;;;;;;;;20.40;99.90;;;;;;5013300;28;19921;-61
2022/05/05 11:49:05;;;;;;;;;;;20.40;99.90;;;;;;5013163;28;19928;-60
2022/05/05 11:51:33;;;;;;;;;;;20.50;99.90;;;;;;5013131;28;19972;-60
2022/05/05 11:54:00;;;;;;;;;;;20.70;99.90;;;;;;5013068;28;19961;-60
2022/05/05 11:56:26;;;;;;;;;;;20.80;99.90;;;;;;5060528;28;20263;-61
2022/05/05 12:01:42;;;;;;;;;;;21.20;99.90;;;;;;5074736;28;19921;-61
2022/05/05 12:04:12;;;;;;;;;;;21.00;99.50;;;;;;5075006;28;20003;-60
2022/05/05 12:06:41;;;;;;;;;;;21.20;99.30;;;;;;5074690;28;20359;-61
2022/05/05 12:09:07;;;;;;;;;;;21.00;99.80;;;;;;5074924;28;20007;-61
2022/05/05 12:11:33;;;;;;;;;;;21.00;99.90;;;;;;5074674;28;19924;-60
2022/05/05 12:14:00;;;;;;;;;;;21.10;99.20;;;;;;5074611;28;19997;-61
2022/05/05 12:16:30;;;;;;;;;;;20.90;99.10;;;;;;5074754;28;19920;-61
2022/05/05 12:18:55;;;;;;;;;;;21.10;99.60;;;;;;5074897;28;19924;-61
2022/05/05 12:21:24;;;;;;;;;;;21.20;99.90;;;;;;5074847;28;19921;-61
2022/05/05 12:23:59;;;;;;;;;;;21.40;99.90;;;;;;5074648;28;19932;-60
2022/05/05 12:26:35;;;;;;;;;;;21.40;99.90;;;;;;5074308;28;19974;-60
2022/05/05 12:29:01;;;;;;;;;;;21.30;99.80;;;;;;5074339;28;20309;-60
2022/05/05 12:31:29;;;;;;;;;;;21.40;99.00;;;;;;5074437;28;19932;-60
2022/05/05 12:33:55;;;;;;;;;;;21.60;99.10;;;;;;5074349;28;19920;-61
2022/05/05 12:36:30;;;;;;;;;;;21.50;98.10;;;;;;5074266;28;19943;-61
2022/05/05 12:39:09;;;;;;;;;;;21.30;99.00;;;;;;5056176;28;19959;-60
2022/05/05 12:41:35;;;;;;;;;;;21.70;99.40;;;;;;5073638;28;19927;-60
2022/05/05 12:44:19;;;;;;;;;;;21.70;98.60;;;;;;5073849;28;20443;-60
2022/05/05 12:46:51;;;;;;;;;;;21.80;99.40;;;;;;5056010;28;19967;-61
2022/05/05 12:49:35;;;;;;;;;;;22.20;98.50;;;;;;5073816;28;19920;-60
2022/05/05 12:52:02;;;;;;;;;;;22.20;98.00;;;;;;5074114;28;19924;-60
2022/05/05 12:59:56;;;;;;;;;;;22.10;99.20;;;;;;5073671;28;19921;-60
2022/05/05 13:02:21;;;;;;;;;;;22.10;98.70;;;;;;5073798;28;19920;-60
2022/05/05 13:04:48;;;;;;;;;;;22.10;97.60;;;;;;5074018;28;20439;-58
2022/05/05 13:07:14;;;;;;;;;;;22.00;97.80;;;;;;5073962;28;19935;-59
2022/05/05 13:09:39;;;;;;;;;;;22.00;97.90;;;;;;5073546;28;19925;-58
2022/05/05 13:12:05;;;;;;;;;;;22.10;98.50;;;;;;5073410;28;19960;-60
2022/05/05 13:14:31;;;;;;;;;;;22.20;98.50;;;;;;5073477;28;19921;-61
2022/05/05 13:16:57;;;;;;;;;;;22.30;99.40;;;;;;5073418;28;20014;-61
2022/05/05 13:19:24;;;;;;;;;;;22.40;98.30;;;;;;5073516;28;20324;-62
2022/05/05 13:21:49;;;;;;;;;;;22.40;99.00;;;;;;5073587;28;19970;-62
2022/05/05 13:24:15;;;;;;;;;;;22.50;98.20;;;;;;5073264;28;19920;-61
2022/05/05 13:26:43;;;;;;;;;;;22.60;98.40;;;;;;5073204;28;19920;-61
2022/05/05 13:29:09;;;;;;;;;;;22.60;97.10;;;;;;5072896;28;20267;-62
2022/05/05 13:31:35;;;;;;;;;;;22.50;98.10;;;;;;5073323;28;19928;-61
2022/05/05 13:34:00;;;;;;;;;;;22.40;96.50;;;;;;5073168;28;20011;-61
2022/05/05 13:36:26;;;;;;;;;;;22.00;97.10;;;;;;5073101;28;19920;-61
2022/05/05 13:38:52;;;;;;;;;;;21.80;96.80;;;;;;5073109;28;20290;-61
2022/05/05 13:41:17;;;;;;;;;;;22.00;97.80;;;;;;5072924;28;19920;-61
2022/05/05 13:43:43;;;;;;;;;;;22.10;97.50;;;;;;5073142;28;20276;-61
2022/05/05 13:46:09;;;;;;;;;;;22.10;97.40;;;;;;5073133;28;19928;-62
2022/05/05 13:48:35;;;;;;;;;;;21.90;97.20;;;;;;5072987;28;19927;-62
2022/05/05 13:51:03;;;;;;;;;;;21.90;98.00;;;;;;5072777;28;19924;-61
2022/05/05 13:53:29;;;;;;;;;;;21.90;97.20;;;;;;5071962;28;19920;-61
2022/05/05 13:55:55;;;;;;;;;;;21.70;98.60;;;;;;5072799;28;19920;-61
2022/05/05 13:58:20;;;;;;;;;;;21.80;98.80;;;;;;5072778;28;19928;-62
2022/05/05 14:00:46;;;;;;;;;;;21.90;99.00;;;;;;5055442;28;19928;-60
2022/05/05 14:03:12;;;;;;;;;;;22.00;99.60;;;;;;5072618;28;19973;-60
2022/05/05 14:05:37;;;;;;;;;;;22.10;98.30;;;;;;5072466;28;19921;-60
2022/05/05 14:13:31;;;;;;;;;;;21.90;98.80;;;;;;5072499;28;20003;-60
2022/05/05 14:15:57;;;;;;;;;;;21.70;98.30;;;;;;5072404;28;20473;-60
2022/05/05 14:18:23;;;;;;;;;;;21.70;98.60;;;;;;5072418;28;19921;-60
2022/05/05 14:20:49;;;;;;;;;;;21.70;97.50;;;;;;5072337;28;20009;-60
2022/05/05 14:23:14;;;;;;;;;;;21.50;97.60;;;;;;5072402;28;19971;-59
2022/05/05 14:25:40;;;;;;;;;;;21.40;98.50;;;;;;5072298;28;19932;-60
2022/05/05 14:28:05;;;;;;;;;;;21.50;98.90;;;;;;5072597;28;19931;-60
2022/05/05 14:30:31;;;;;;;;;;;21.60;98.70;;;;;;5072080;28;20433;-59
2022/05/05 14:32:56;;;;;;;;;;;21.60;99.50;;;;;;5054283;28;19921;-59
2022/05/05 14:35:22;;;;;;;;;;;21.40;98.40;;;;;;5072082;28;19963;-59
2022/05/05 14:37:47;;;;;;;;;;;21.50;98.50;;;;;;5072427;28;19946;-60
2022/05/05 14:40:13;;;;;;;;;;;21.50;98.90;;;;;;5072231;28;19928;-59
2022/05/05 14:42:39;;;;;;;;;;;21.50;99.20;;;;;;5072117;28;19921;-60
2022/05/05 14:45:05;;;;;;;;;;;21.40;97.90;;;;;;5072098;28;19920;-60
2022/05/05 14:47:31;;;;;;;;;;;21.20;98.10;;;;;;5072114;28;20007;-60
2022/05/05 14:49:56;;;;;;;;;;;21.30;99.10;;;;;;5071852;28;20019;-60
2022/05/05 14:52:22;;;;;;;;;;;21.10;99.30;;;;;;5071720;28;20011;-60
2022/05/05 14:54:48;;;;;;;;;;;21.10;99.90;;;;;;5072124;28;19925;-60
2022/05/05 14:57:14;;;;;;;;;;;21.00;99.90;;;;;;5071983;28;19966;-60
2022/05/05 14:59:40;;;;;;;;;;;20.80;99.90;;;;;;5072060;28;19921;-60
2022/05/05 15:02:06;;;;;;;;;;;20.80;99.90;;;;;;5071886;28;19928;-60
2022/05/05 15:04:32;;;;;;;;;;;20.80;99.90;;;;;;5073537;28;19920;-60
2022/05/05 15:06:57;;;;;;;;;;;20.80;99.90;;;;;;5075811;28;20071;-59
2022/05/05 15:09:23;;;;;;;;;;;20.70;99.90;;;;;;5076093;28;20321;-60
2022/05/05 15:11:49;;;;;;;;;;;20.80;99.90;;;;;;5076110;28;20265;-60
2022/05/05 15:14:14;;;;;;;;;;;20.80;99.90;;;;;;5075879;28;19927;-60
2022/05/05 15:16:40;;;;;;;;;;;20.80;99.90;;;;;;5075605;28;19978;-60
2022/05/05 15:19:06;;;;;;;;;;;20.70;99.90;;;;;;5075681;28;19921;-59
2022/05/05 15:21:31;;;;;;;;;;;20.70;99.90;;;;;;5074253;28;19924;-60
2022/05/05 15:23:58;;;;;;;;;;;20.60;99.90;;;;;;5075731;28;19916;-60